Terminal Aerodrome Forecast
Issued by NWS Bismarck, ND

Home | Current Version | Previous Version | Text Only | Print | Product List | Glossary On
Versions: 1 2 3 4 5 6 7 8 9 10 11 12 13 14 15 16 17 18 19 20 21
000
FTUS43 KBIS 230500
TAFBIS
TAF
KBIS 230528Z 2306/2406 07012KT P6SM BKN035 OVC050
     FM230900 07013KT P6SM OVC015
     FM231200 07013KT 5SM -SHRA OVC008
     FM231800 06015G22KT 2SM +SHRA OVC005
     FM240000 13015KT 5SM -SHRA OVC006=

USA.gov is the U.S. government's official web portal to all federal, state and local government web resources and services.